Time;durP1;ratioP1;P1;durP2;ratioP2;P2;SDS_P1;SDS_P2;PMS_P1;PMS_P2;Temp;Humidity;BMP_temperature;BMP_pressure;BME280_temperature;BME280_humidity;BME280_pressure;Samples;Min_cycle;Max_cycle;Signal;HPM_P1;HPM_P2
2023/04/02 00:00:19;;;;;;;;;;;;;;;8.21;nan;99513.19;4940401;29;20380;-83
2023/04/02 00:03:07;;;;;;;;;;;;;;;8.07;nan;99521.69;4939139;29;19929;-84
2023/04/02 00:05:53;;;;;;;;;;;;;;;8.35;nan;99518.69;4941403;29;19968;-85
2023/04/02 00:08:39;;;;;;;;;;;;;;;8.36;nan;99521.13;4939996;29;19920;-84
2023/04/02 00:11:36;;;;;;;;;;;;;;;8.22;nan;99529.66;4952315;28;19970;-85
2023/04/02 00:14:28;;;;;;;;;;;;;;;8.57;nan;99528.47;4940711;29;19921;-83
2023/04/02 00:17:12;;;;;;;;;;;;;;;8.34;nan;99530.13;4952568;29;19973;-83
2023/04/02 00:19:59;;;;;;;;;;;;;;;8.35;nan;99535.19;4955581;29;19921;-85
2023/04/02 00:22:43;;;;;;;;;;;;;;;8.09;nan;99538.88;4955512;29;20436;-84
2023/04/02 00:25:41;;;;;;;;;;;;;;;8.34;nan;99537.97;4941058;29;19961;-84
2023/04/02 00:28:25;;;;;;;;;;;;;;;8.04;nan;99551.59;4939685;29;19922;-85
2023/04/02 00:31:09;;;;;;;;;;;;;;;8.21;nan;99544.56;4955441;29;19921;-85
2023/04/02 00:33:54;;;;;;;;;;;;;;;7.99;nan;99546.06;4940556;29;19945;-84
2023/04/02 00:36:40;;;;;;;;;;;;;;;8.22;nan;99547.97;4937929;29;19921;-83
2023/04/02 00:39:27;;;;;;;;;;;;;;;8.08;nan;99555.53;4938895;29;20272;-84
2023/04/02 00:42:11;;;;;;;;;;;;;;;8.23;nan;99558.28;4940291;29;20424;-84
2023/04/02 00:44:57;;;;;;;;;;;;;;;8.11;nan;99555.19;4933111;29;20384;-84
2023/04/02 00:47:42;;;;;;;;;;;;;;;8.26;nan;99562.38;4935088;29;19931;-83
2023/04/02 00:50:30;;;;;;;;;;;;;;;8.25;nan;99566.78;4937676;29;19957;-83
2023/04/02 00:53:22;;;;;;;;;;;;;;;8.15;nan;99574.81;4936083;29;19973;-83
2023/04/02 00:56:13;;;;;;;;;;;;;;;8.00;nan;99574.66;4936791;29;19976;-83
2023/04/02 00:58:57;;;;;;;;;;;;;;;8.00;nan;99579.06;4936535;29;19921;-82
2023/04/02 01:01:41;;;;;;;;;;;;;;;8.06;nan;99583.66;4939659;29;19962;-83
2023/04/02 01:04:27;;;;;;;;;;;;;;;8.09;nan;99588.53;4934418;29;20002;-82
2023/04/02 01:07:12;;;;;;;;;;;;;;;8.30;nan;99597.66;4937136;29;19925;-83
2023/04/02 01:10:14;;;;;;;;;;;;;;;8.13;nan;99594.25;4939976;29;19921;-84
2023/04/02 01:13:12;;;;;;;;;;;;;;;8.40;nan;99600.91;4938067;29;19965;-83
2023/04/02 01:16:00;;;;;;;;;;;;;;;8.30;nan;99605.53;4951277;29;19950;-83
2023/04/02 01:18:49;;;;;;;;;;;;;;;8.41;nan;99602.53;4937911;29;20027;-83
2023/04/02 01:21:52;;;;;;;;;;;;;;;8.46;nan;99601.25;4940464;28;20415;-82
2023/04/02 01:24:37;;;;;;;;;;;;;;;8.29;nan;99609.13;4940148;29;19956;-83
2023/04/02 01:27:24;;;;;;;;;;;;;;;8.63;nan;99613.31;4938971;29;19926;-82
2023/04/02 01:30:10;;;;;;;;;;;;;;;8.51;nan;99610.25;4939553;29;20284;-82
2023/04/02 01:32:55;;;;;;;;;;;;;;;8.48;nan;99612.34;4952956;29;20045;-84
2023/04/02 01:35:43;;;;;;;;;;;;;;;8.64;nan;99622.00;4954418;29;19930;-83
2023/04/02 01:38:32;;;;;;;;;;;;;;;8.51;nan;99631.16;4954325;29;19921;-83
2023/04/02 01:41:25;;;;;;;;;;;;;;;8.25;nan;99628.72;4954283;29;20324;-82
2023/04/02 01:44:13;;;;;;;;;;;;;;;8.05;nan;99630.84;4939617;29;19950;-83
2023/04/02 01:46:59;;;;;;;;;;;;;;;8.25;nan;99631.31;4936989;29;19940;-83
2023/04/02 01:49:44;;;;;;;;;;;;;;;7.88;nan;99630.84;4954249;29;19929;-83
2023/04/02 01:52:40;;;;;;;;;;;;;;;8.08;nan;99635.75;4940225;29;19920;-82
2023/04/02 01:55:32;;;;;;;;;;;;;;;7.93;nan;99638.22;4935382;29;20012;-84
2023/04/02 01:58:24;;;;;;;;;;;;;;;8.03;nan;99645.91;4938359;29;19922;-84
2023/04/02 02:01:20;;;;;;;;;;;;;;;7.94;nan;99647.69;4937408;29;19965;-83
2023/04/02 02:04:05;;;;;;;;;;;;;;;7.95;nan;99651.94;4937578;29;19981;-82
2023/04/02 02:06:49;;;;;;;;;;;;;;;8.37;nan;99664.03;4939044;29;20396;-83
2023/04/02 02:09:34;;;;;;;;;;;;;;;8.19;nan;99663.38;4952088;29;19925;-84
2023/04/02 02:12:18;;;;;;;;;;;;;;;8.12;nan;99666.66;4939418;29;19921;-83
2023/04/02 02:15:02;;;;;;;;;;;;;;;8.10;nan;99668.63;4939065;29;19921;-84
2023/04/02 02:17:46;;;;;;;;;;;;;;;8.12;nan;99664.03;4937649;29;19969;-84
2023/04/02 02:20:32;;;;;;;;;;;;;;;8.24;nan;99675.00;4938393;29;19921;-83
2023/04/02 02:23:16;;;;;;;;;;;;;;;7.95;nan;99681.47;4953662;29;19920;-84
2023/04/02 02:26:00;;;;;;;;;;;;;;;8.04;nan;99684.94;4951779;29;19926;-83
2023/04/02 02:28:49;;;;;;;;;;;;;;;7.83;nan;99682.78;4939353;29;19922;-84
2023/04/02 02:31:34;;;;;;;;;;;;;;;8.29;nan;99684.97;4939130;29;19985;-83
2023/04/02 02:34:21;;;;;;;;;;;;;;;8.23;nan;99685.59;4938779;29;20476;-83
2023/04/02 02:37:11;;;;;;;;;;;;;;;8.15;nan;99695.09;4934648;29;19920;-84
2023/04/02 02:39:58;;;;;;;;;;;;;;;7.87;nan;99710.25;4953371;29;19937;-83
2023/04/02 02:42:46;;;;;;;;;;;;;;;7.91;nan;99703.72;4937293;29;19934;-85
2023/04/02 02:45:34;;;;;;;;;;;;;;;8.04;nan;99705.03;4937051;29;19921;-83
2023/04/02 02:48:26;;;;;;;;;;;;;;;8.03;nan;99709.44;4951846;29;19942;-84
2023/04/02 02:51:16;;;;;;;;;;;;;;;7.90;nan;99706.50;4939175;29;19921;-85
2023/04/02 02:54:03;;;;;;;;;;;;;;;8.25;nan;99721.09;4939394;29;19969;-83
2023/04/02 02:56:54;;;;;;;;;;;;;;;7.80;nan;99719.72;4938153;29;20281;-83
2023/04/02 02:59:38;;;;;;;;;;;;;;;7.98;nan;99727.41;4935237;29;19921;-84
2023/04/02 03:02:28;;;;;;;;;;;;;;;7.78;nan;99737.34;4938788;29;19964;-84
2023/04/02 03:05:18;;;;;;;;;;;;;;;7.76;nan;99734.88;4936927;29;19973;-82
2023/04/02 03:08:03;;;;;;;;;;;;;;;8.09;nan;99740.19;4937209;29;19925;-84
2023/04/02 03:11:03;;;;;;;;;;;;;;;7.91;nan;99748.16;4935075;29;19921;-84
2023/04/02 03:13:49;;;;;;;;;;;;;;;8.16;nan;99740.38;4937381;29;19921;-85
2023/04/02 03:16:40;;;;;;;;;;;;;;;7.95;nan;99751.28;4938306;29;19965;-83
2023/04/02 03:19:46;;;;;;;;;;;;;;;7.76;nan;99750.56;4952443;29;20048;-84
2023/04/02 03:22:37;;;;;;;;;;;;;;;7.84;nan;99753.19;4951165;29;20061;-83
2023/04/02 03:25:33;;;;;;;;;;;;;;;7.81;nan;99757.94;4953339;29;19962;-84
2023/04/02 03:28:20;;;;;;;;;;;;;;;7.60;nan;99766.16;4937951;29;19967;-84
2023/04/02 03:31:07;;;;;;;;;;;;;;;7.65;nan;99782.19;4937570;29;19965;-84
2023/04/02 03:33:57;;;;;;;;;;;;;;;7.51;nan;99774.00;4952245;29;19922;-83
2023/04/02 03:36:47;;;;;;;;;;;;;;;7.49;nan;99785.56;4937395;29;19969;-85
2023/04/02 03:39:51;;;;;;;;;;;;;;;7.39;nan;99790.88;4951779;29;19920;-84
2023/04/02 03:42:37;;;;;;;;;;;;;;;7.50;nan;99798.47;4929142;29;19934;-85
2023/04/02 03:45:23;;;;;;;;;;;;;;;7.47;nan;99804.00;4952757;28;20332;-85
2023/04/02 03:48:10;;;;;;;;;;;;;;;7.77;nan;99804.47;4941394;29;19925;-85
2023/04/02 03:51:06;;;;;;;;;;;;;;;7.05;nan;99808.16;4940398;29;19929;-86
2023/04/02 03:53:51;;;;;;;;;;;;;;;7.42;nan;99816.69;4941526;29;20472;-85
2023/04/02 03:56:39;;;;;;;;;;;;;;;7.17;nan;99813.94;4939362;29;19928;-86
2023/04/02 03:59:22;;;;;;;;;;;;;;;7.33;nan;99823.66;4941851;29;20566;-82
2023/04/02 04:02:09;;;;;;;;;;;;;;;7.75;nan;99827.31;4937887;29;19924;-84
2023/04/02 04:04:54;;;;;;;;;;;;;;;7.14;nan;99824.69;4939799;29;20050;-85
2023/04/02 04:07:40;;;;;;;;;;;;;;;7.25;nan;99834.06;4940751;29;20058;-86
2023/04/02 04:10:25;;;;;;;;;;;;;;;7.40;nan;99836.94;4941038;29;19921;-85
2023/04/02 04:13:12;;;;;;;;;;;;;;;7.49;nan;99838.63;4940846;29;19921;-85
2023/04/02 04:15:59;;;;;;;;;;;;;;;7.09;nan;99832.97;4940486;29;19995;-85
2023/04/02 04:18:52;;;;;;;;;;;;;;;7.37;nan;99842.47;4940858;29;19977;-85
2023/04/02 04:21:38;;;;;;;;;;;;;;;7.27;nan;99845.19;4940463;29;20047;-85
2023/04/02 04:24:23;;;;;;;;;;;;;;;7.26;nan;99849.56;4955271;29;20077;-84
2023/04/02 04:27:15;;;;;;;;;;;;;;;6.98;nan;99856.72;4954825;29;20299;-84
2023/04/02 04:30:06;;;;;;;;;;;;;;;7.14;nan;99853.41;4955023;29;20427;-84
2023/04/02 04:32:57;;;;;;;;;;;;;;;7.14;nan;99859.44;4940024;29;20394;-83
2023/04/02 04:35:47;;;;;;;;;;;;;;;7.50;nan;99861.16;4938595;29;20372;-85
2023/04/02 04:38:32;;;;;;;;;;;;;;;7.16;nan;99864.53;4955188;29;20396;-85
2023/04/02 04:41:21;;;;;;;;;;;;;;;7.30;nan;99860.53;4940644;29;19921;-85
2023/04/02 04:44:05;;;;;;;;;;;;;;;7.51;nan;99867.19;4953170;29;19961;-82
2023/04/02 04:46:52;;;;;;;;;;;;;;;7.41;nan;99867.31;4941194;29;19924;-86
2023/04/02 04:49:39;;;;;;;;;;;;;;;7.50;nan;99869.00;4939816;29;19921;-86
2023/04/02 04:52:25;;;;;;;;;;;;;;;7.22;nan;99869.13;4940134;29;19926;-87
2023/04/02 04:55:25;;;;;;;;;;;;;;;7.57;nan;99877.84;4940074;29;19945;-86
2023/04/02 04:58:15;;;;;;;;;;;;;;;7.41;nan;99885.59;4940633;29;19921;-87
2023/04/02 05:01:08;;;;;;;;;;;;;;;7.49;nan;99896.09;4940324;29;20411;-84
2023/04/02 05:04:00;;;;;;;;;;;;;;;7.47;nan;99913.72;4940521;29;20005;-87
2023/04/02 05:06:53;;;;;;;;;;;;;;;7.50;nan;99915.19;4954966;29;19930;-86
2023/04/02 05:09:43;;;;;;;;;;;;;;;7.31;nan;99919.63;4939657;29;20275;-86
2023/04/02 05:12:48;;;;;;;;;;;;;;;7.32;nan;99923.88;4940373;29;20010;-85
2023/04/02 05:15:49;;;;;;;;;;;;;;;7.33;nan;99927.31;4939514;29;19922;-85
2023/04/02 05:18:37;;;;;;;;;;;;;;;7.06;nan;99924.66;4953921;29;19921;-84
2023/04/02 05:21:32;;;;;;;;;;;;;;;7.43;nan;99936.72;4937669;29;19965;-86
2023/04/02 05:24:33;;;;;;;;;;;;;;;7.55;nan;99941.69;4936720;29;19923;-85
2023/04/02 05:27:23;;;;;;;;;;;;;;;7.05;nan;99946.50;4939524;29;19976;-86
2023/04/02 05:30:22;;;;;;;;;;;;;;;7.10;nan;99938.25;4938185;29;19962;-86
2023/04/02 05:33:27;;;;;;;;;;;;;;;7.17;nan;99947.09;4939789;29;20556;-85
2023/04/02 05:36:16;;;;;;;;;;;;;;;7.07;nan;99949.78;4939738;29;20008;-85
2023/04/02 05:39:01;;;;;;;;;;;;;;;7.05;nan;99950.91;4937420;29;20431;-85
2023/04/02 05:41:46;;;;;;;;;;;;;;;7.15;nan;99951.66;4939630;29;19964;-84
2023/04/02 05:44:32;;;;;;;;;;;;;;;7.20;nan;99949.41;4950321;29;19965;-84
2023/04/02 05:47:28;;;;;;;;;;;;;;;7.46;nan;99964.31;4939645;29;20420;-85
2023/04/02 05:50:25;;;;;;;;;;;;;;;7.41;nan;99961.34;4939044;29;20001;-84
2023/04/02 05:53:13;;;;;;;;;;;;;;;7.36;nan;99976.66;4936924;29;20010;-86
2023/04/02 05:55:58;;;;;;;;;;;;;;;7.38;nan;99974.69;4952774;29;19922;-84
2023/04/02 05:58:42;;;;;;;;;;;;;;;7.50;nan;99976.13;4939052;29;19937;-85
2023/04/02 06:01:32;;;;;;;;;;;;;;;7.53;nan;99975.81;4938881;29;19921;-85
2023/04/02 06:04:21;;;;;;;;;;;;;;;7.53;nan;99980.19;4939570;29;19920;-86
2023/04/02 06:07:16;;;;;;;;;;;;;;;7.84;nan;99988.44;4937237;29;19930;-86
2023/04/02 06:10:11;;;;;;;;;;;;;;;7.45;nan;99988.78;4937954;29;19921;-86
2023/04/02 06:12:59;;;;;;;;;;;;;;;7.42;nan;100010.00;4938225;29;19920;-85
2023/04/02 06:15:43;;;;;;;;;;;;;;;7.31;nan;100007.63;4939466;29;19925;-86
2023/04/02 06:18:29;;;;;;;;;;;;;;;7.22;nan;100002.31;4937812;29;20281;-85
2023/04/02 06:21:15;;;;;;;;;;;;;;;7.65;nan;100009.53;4943148;29;19967;-85
2023/04/02 06:24:02;;;;;;;;;;;;;;;7.67;nan;100003.19;4939340;29;19921;-85
2023/04/02 06:27:05;;;;;;;;;;;;;;;7.34;nan;100020.38;4939192;29;20010;-85
2023/04/02 06:29:52;;;;;;;;;;;;;;;7.40;nan;100027.59;4938106;29;19921;-87
2023/04/02 06:32:39;;;;;;;;;;;;;;;7.27;nan;100022.75;4937539;29;19969;-87
2023/04/02 06:35:23;;;;;;;;;;;;;;;7.28;nan;100038.28;4936509;29;20630;-86
2023/04/02 06:38:24;;;;;;;;;;;;;;;7.43;nan;100035.97;4938867;29;19921;-86
2023/04/02 06:41:22;;;;;;;;;;;;;;;7.20;nan;100026.94;4953826;29;21449;-84
2023/04/02 06:44:33;;;;;;;;;;;;;;;7.36;nan;100039.34;4953538;29;20039;-85
2023/04/02 06:47:29;;;;;;;;;;;;;;;7.15;nan;100040.44;4938386;29;19969;-86
2023/04/02 06:50:15;;;;;;;;;;;;;;;7.52;nan;100046.50;4938893;29;19924;-86
2023/04/02 06:53:05;;;;;;;;;;;;;;;7.48;nan;100053.81;4953162;29;20006;-85
2023/04/02 06:56:00;;;;;;;;;;;;;;;7.24;nan;100057.81;4939182;29;19921;-85
2023/04/02 06:58:45;;;;;;;;;;;;;;;7.34;nan;100070.00;4929669;29;20502;-86
2023/04/02 07:01:34;;;;;;;;;;;;;;;7.48;nan;100066.06;4947519;29;19921;-87
2023/04/02 07:04:20;;;;;;;;;;;;;;;7.51;nan;100076.19;4935066;29;20032;-84
2023/04/02 07:07:04;;;;;;;;;;;;;;;7.31;nan;100080.75;4936470;29;19929;-84
2023/04/02 07:09:50;;;;;;;;;;;;;;;7.26;nan;100086.41;4936024;29;19921;-84
2023/04/02 07:12:34;;;;;;;;;;;;;;;7.32;nan;100079.78;4935862;29;19969;-83
2023/04/02 07:15:18;;;;;;;;;;;;;;;7.54;nan;100094.19;4949740;29;19984;-84
2023/04/02 07:18:05;;;;;;;;;;;;;;;7.86;nan;100096.31;4932995;29;20296;-84
2023/04/02 07:20:50;;;;;;;;;;;;;;;7.54;nan;100102.84;4952961;28;19993;-83
2023/04/02 07:23:34;;;;;;;;;;;;;;;7.41;nan;100111.06;4938177;29;19965;-84
2023/04/02 07:26:21;;;;;;;;;;;;;;;7.34;nan;100114.41;4934441;29;20281;-84
2023/04/02 07:29:12;;;;;;;;;;;;;;;7.39;nan;100115.63;4940396;29;19969;-84
2023/04/02 07:31:56;;;;;;;;;;;;;;;7.39;nan;100107.78;4938581;29;19921;-83
2023/04/02 07:34:40;;;;;;;;;;;;;;;7.53;nan;100108.22;4954139;29;20009;-84
2023/04/02 07:37:25;;;;;;;;;;;;;;;7.50;nan;100106.75;4941089;29;20021;-84
2023/04/02 07:40:18;;;;;;;;;;;;;;;7.58;nan;100113.84;4941275;29;19922;-85
2023/04/02 07:43:06;;;;;;;;;;;;;;;7.15;nan;100119.56;4953262;29;20396;-86
2023/04/02 07:45:50;;;;;;;;;;;;;;;7.61;nan;100125.78;4940362;29;20376;-87
2023/04/02 07:48:34;;;;;;;;;;;;;;;7.21;nan;100119.97;4940644;29;19921;-84
2023/04/02 07:51:20;;;;;;;;;;;;;;;7.32;nan;100129.41;4951485;29;19961;-84
2023/04/02 07:54:03;;;;;;;;;;;;;;;7.50;nan;100132.88;4939070;29;20402;-84
2023/04/02 07:56:47;;;;;;;;;;;;;;;7.47;nan;100141.00;4939323;29;20028;-84
2023/04/02 07:59:31;;;;;;;;;;;;;;;7.51;nan;100144.13;4939660;29;20326;-85
2023/04/02 08:02:20;;;;;;;;;;;;;;;7.76;nan;100147.81;4941110;29;19921;-84
2023/04/02 08:05:04;;;;;;;;;;;;;;;7.50;nan;100148.53;4942276;29;19980;-85
2023/04/02 08:07:59;;;;;;;;;;;;;;;7.64;nan;100151.59;4938427;29;20431;-85
2023/04/02 08:10:43;;;;;;;;;;;;;;;7.67;nan;100153.94;4940225;29;19929;-84
2023/04/02 08:13:31;;;;;;;;;;;;;;;7.91;nan;100149.91;4939210;29;19933;-84
2023/04/02 08:16:15;;;;;;;;;;;;;;;8.06;nan;100158.88;4938953;29;19921;-83
2023/04/02 08:19:00;;;;;;;;;;;;;;;7.81;nan;100156.03;4940478;29;19964;-85
2023/04/02 08:21:44;;;;;;;;;;;;;;;7.68;nan;100145.94;4954991;29;19964;-84
2023/04/02 08:24:28;;;;;;;;;;;;;;;7.83;nan;100156.69;4938739;29;19957;-84
2023/04/02 08:27:13;;;;;;;;;;;;;;;7.89;nan;100141.41;4932753;29;19946;-86
2023/04/02 08:29:57;;;;;;;;;;;;;;;7.74;nan;100165.44;4937928;29;19964;-85
2023/04/02 08:32:41;;;;;;;;;;;;;;;7.82;nan;100157.66;4935053;29;19926;-85
2023/04/02 08:35:26;;;;;;;;;;;;;;;8.02;nan;100167.16;4955139;29;19942;-85
2023/04/02 08:38:15;;;;;;;;;;;;;;;8.19;nan;100168.97;4940726;29;19964;-84
2023/04/02 08:41:00;;;;;;;;;;;;;;;8.24;nan;100171.09;4939576;29;19921;-86
2023/04/02 08:43:59;;;;;;;;;;;;;;;8.06;nan;100184.19;4943104;29;19973;-86
2023/04/02 08:46:52;;;;;;;;;;;;;;;8.00;nan;100188.22;4953971;29;19985;-86
2023/04/02 08:49:55;;;;;;;;;;;;;;;8.28;nan;100175.09;4950950;29;19953;-86
2023/04/02 08:52:39;;;;;;;;;;;;;;;8.50;nan;100186.88;4941167;29;20334;-86
2023/04/02 08:55:31;;;;;;;;;;;;;;;8.26;nan;100195.34;4940636;29;19921;-87
2023/04/02 08:58:15;;;;;;;;;;;;;;;8.73;nan;100203.88;4942401;29;19969;-87
2023/04/02 09:01:01;;;;;;;;;;;;;;;8.73;nan;100209.13;4942426;29;20392;-87
2023/04/02 09:03:46;;;;;;;;;;;;;;;8.70;nan;100207.63;4942377;29;20648;-87
2023/04/02 09:06:32;;;;;;;;;;;;;;;8.65;nan;100207.25;4933989;29;19950;-87
2023/04/02 09:09:48;;;;;;;;;;;;;;;;;;;;;
2023/04/02 09:12:40;;;;;;;;;;;;;;;8.69;nan;100217.28;4955281;29;19922;-86
2023/04/02 09:15:30;;;;;;;;;;;;;;;9.27;nan;100219.41;4940067;29;19929;-84
2023/04/02 09:18:15;;;;;;;;;;;;;;;9.02;nan;100226.31;4939039;29;20388;-86
2023/04/02 09:21:02;;;;;;;;;;;;;;;8.79;nan;100224.22;4940535;29;20387;-86
2023/04/02 09:23:47;;;;;;;;;;;;;;;8.79;nan;100234.69;4954957;29;19970;-85
2023/04/02 09:26:32;;;;;;;;;;;;;;;8.58;nan;100233.22;4954288;29;19984;-86
2023/04/02 09:29:34;;;;;;;;;;;;;;;8.65;nan;100239.50;4953873;29;20312;-84
2023/04/02 09:32:26;;;;;;;;;;;;;;;8.50;nan;100235.78;4953135;29;19922;-85
2023/04/02 09:35:11;;;;;;;;;;;;;;;8.41;nan;100248.75;4951063;29;20010;-86
2023/04/02 09:38:10;;;;;;;;;;;;;;;8.03;nan;100242.03;4950470;29;20328;-86
2023/04/02 09:41:01;;;;;;;;;;;;;;;7.99;nan;100251.94;4938153;29;20435;-86
2023/04/02 09:43:45;;;;;;;;;;;;;;;8.00;nan;100256.22;4937625;29;19981;-86
2023/04/02 09:46:29;;;;;;;;;;;;;;;8.18;nan;100256.25;4940217;29;20376;-85
2023/04/02 09:49:15;;;;;;;;;;;;;;;8.39;nan;100253.31;4939806;29;19925;-85
2023/04/02 09:52:14;;;;;;;;;;;;;;;8.20;nan;100258.69;4939447;29;19961;-86
2023/04/02 09:55:14;;;;;;;;;;;;;;;8.07;nan;100265.13;4951861;29;19938;-85
2023/04/02 09:58:07;;;;;;;;;;;;;;;8.24;nan;100266.09;4939657;29;19981;-85
2023/04/02 10:00:52;;;;;;;;;;;;;;;8.18;nan;100266.72;4938423;29;19972;-85
2023/04/02 10:03:36;;;;;;;;;;;;;;;8.41;nan;100264.44;4938430;29;19961;-85
2023/04/02 10:06:22;;;;;;;;;;;;;;;8.56;nan;100269.19;4939675;29;19926;-86
2023/04/02 10:09:29;;;;;;;;;;;;;;;8.40;nan;100265.44;4939681;29;19925;-87
2023/04/02 10:12:14;;;;;;;;;;;;;;;8.21;nan;100271.63;4937217;29;19925;-85
2023/04/02 10:15:00;;;;;;;;;;;;;;;8.55;nan;100278.03;4939392;29;19921;-84
2023/04/02 10:17:50;;;;;;;;;;;;;;;8.29;nan;100283.97;4939737;29;19965;-86
2023/04/02 10:20:36;;;;;;;;;;;;;;;8.39;nan;100284.72;4939561;29;19969;-86
2023/04/02 10:23:22;;;;;;;;;;;;;;;8.33;nan;100289.72;4939562;29;20017;-87
2023/04/02 10:26:26;;;;;;;;;;;;;;;8.46;nan;100294.59;4938310;29;19925;-85
2023/04/02 10:29:20;;;;;;;;;;;;;;;8.92;nan;100299.72;4936974;29;19921;-87
2023/04/02 10:32:07;;;;;;;;;;;;;;;9.21;nan;100296.81;4935756;29;19998;-86
2023/04/02 10:35:03;;;;;;;;;;;;;;;9.60;nan;100299.97;4937400;29;19920;-86
2023/04/02 10:38:05;;;;;;;;;;;;;;;9.71;nan;100295.28;4952514;29;19921;-86
2023/04/02 10:40:57;;;;;;;;;;;;;;;10.17;nan;100304.63;4938354;29;19922;-86
2023/04/02 10:43:59;;;;;;;;;;;;;;;10.51;nan;100313.41;4938941;29;19974;-86
2023/04/02 10:46:46;;;;;;;;;;;;;;;10.65;nan;100323.25;4938886;29;19924;-85
2023/04/02 10:49:33;;;;;;;;;;;;;;;10.34;nan;100318.59;4938332;29;19965;-83
2023/04/02 10:52:20;;;;;;;;;;;;;;;10.22;nan;100323.31;4954215;29;19925;-82
2023/04/02 10:55:41;;;;;;;;;;;;;;;9.90;nan;100326.66;4941844;29;21430;-87
2023/04/02 10:58:27;;;;;;;;;;;;;;;9.87;nan;100325.16;4866284;29;19923;-85
2023/04/02 11:01:18;;;;;;;;;;;;;;;9.82;nan;100327.44;4942699;29;19937;-85
2023/04/02 11:04:04;;;;;;;;;;;;;;;9.71;nan;100325.94;4956391;29;19965;-86
2023/04/02 11:07:01;;;;;;;;;;;;;;;9.74;nan;100327.44;4942308;29;20336;-84
2023/04/02 11:09:49;;;;;;;;;;;;;;;9.83;nan;100319.44;4943121;29;19921;-86
2023/04/02 11:12:43;;;;;;;;;;;;;;;9.98;nan;100329.31;4942119;29;19920;-85
2023/04/02 11:15:28;;;;;;;;;;;;;;;9.70;nan;100338.19;4942304;29;20377;-86
2023/04/02 11:18:26;;;;;;;;;;;;;;;10.07;nan;100341.47;4941114;29;20057;-85
2023/04/02 11:21:29;;;;;;;;;;;;;;;10.45;nan;100337.69;4942862;29;19921;-86
2023/04/02 11:24:28;;;;;;;;;;;;;;;10.27;nan;100341.22;4941435;29;19962;-86
2023/04/02 11:27:32;;;;;;;;;;;;;;;10.37;nan;100343.69;4956867;29;20304;-86
2023/04/02 11:30:53;;;;;;;;;;;;;;;11.08;nan;100344.09;4942169;29;20411;-85
2023/04/02 11:33:39;;;;;;;;;;;;;;;11.22;nan;100345.25;4956129;29;19921;-84
2023/04/02 11:36:42;;;;;;;;;;;;;;;10.95;nan;100344.59;4942719;29;19947;-84
2023/04/02 11:39:48;;;;;;;;;;;;;;;10.95;nan;100370.06;4940578;29;20324;-86
2023/04/02 11:42:33;;;;;;;;;;;;;;;10.96;nan;100367.25;4940611;29;19969;-89
2023/04/02 11:45:20;;;;;;;;;;;;;;;10.88;nan;100377.75;4956367;29;19921;-89
2023/04/02 11:48:14;;;;;;;;;;;;;;;10.49;nan;100375.75;4939408;29;19930;-90
2023/04/02 11:50:58;;;;;;;;;;;;;;;10.69;nan;100376.25;4941984;29;20016;-88
2023/04/02 11:53:42;;;;;;;;;;;;;;;10.45;nan;100374.44;4940828;29;19969;-89
2023/04/02 11:56:49;;;;;;;;;;;;;;;10.37;nan;100373.38;4941803;29;20379;-89
2023/04/02 11:59:52;;;;;;;;;;;;;;;10.30;nan;100375.00;4954405;29;19969;-90
2023/04/02 12:03:05;;;;;;;;;;;;;;;;;;;;;
2023/04/02 12:06:10;;;;;;;;;;;;;;;10.45;nan;100384.94;4955839;28;20050;-88
2023/04/02 12:09:18;;;;;;;;;;;;;;;10.54;nan;100378.69;4942123;29;19945;-89
2023/04/02 12:12:15;;;;;;;;;;;;;;;10.30;nan;100385.50;4940179;29;19921;-88
2023/04/02 12:14:59;;;;;;;;;;;;;;;10.26;nan;100390.25;4941775;29;19922;-91
2023/04/02 12:17:44;;;;;;;;;;;;;;;10.13;nan;100387.25;4940840;29;20329;-89
2023/04/02 12:20:29;;;;;;;;;;;;;;;10.48;nan;100390.66;4942221;29;20008;-90
2023/04/02 12:23:25;;;;;;;;;;;;;;;10.88;nan;100396.16;4941489;29;19929;-89
2023/04/02 12:26:25;;;;;;;;;;;;;;;11.07;nan;100388.94;4941386;29;19984;-91
2023/04/02 12:29:23;;;;;;;;;;;;;;;11.18;nan;100396.47;4940686;29;19922;-89
2023/04/02 12:32:20;;;;;;;;;;;;;;;11.19;nan;100392.88;4942023;29;19929;-90
2023/04/02 12:35:07;;;;;;;;;;;;;;;11.56;nan;100394.13;4939565;29;19925;-90
2023/04/02 12:37:56;;;;;;;;;;;;;;;11.21;nan;100404.06;4940270;29;19960;-88
2023/04/02 12:40:50;;;;;;;;;;;;;;;11.64;nan;100408.28;4939100;29;19921;-89
2023/04/02 12:43:43;;;;;;;;;;;;;;;11.49;nan;100414.22;4941705;29;19932;-89
2023/04/02 12:46:42;;;;;;;;;;;;;;;11.43;nan;100410.44;4964213;29;20034;-90
2023/04/02 12:49:43;;;;;;;;;;;;;;;11.19;nan;100406.00;4954280;29;20013;-88
2023/04/02 12:52:31;;;;;;;;;;;;;;;10.86;nan;100398.94;4941556;29;19944;-88
2023/04/02 12:55:20;;;;;;;;;;;;;;;10.71;nan;100414.50;4941669;29;20171;-89
2023/04/02 12:58:39;;;;;;;;;;;;;;;;;;;;;
2023/04/02 13:01:33;;;;;;;;;;;;;;;11.15;nan;100420.47;4953555;29;20005;-90
2023/04/02 13:04:20;;;;;;;;;;;;;;;11.48;nan;100411.72;4937018;29;20667;-87
2023/04/02 13:07:07;;;;;;;;;;;;;;;11.45;nan;100401.56;4941704;29;20013;-89
2023/04/02 13:09:56;;;;;;;;;;;;;;;11.19;nan;100408.63;4941941;29;20014;-88
2023/04/02 13:12:53;;;;;;;;;;;;;;;11.17;nan;100415.88;4940292;29;19936;-89
2023/04/02 13:16:03;;;;;;;;;;;;;;;11.33;nan;100404.53;4941846;29;19921;-90
2023/04/02 13:18:50;;;;;;;;;;;;;;;10.86;nan;100411.25;4938846;29;19922;-89
2023/04/02 13:25:05;;;;;;;;;;;;;;;11.21;nan;100414.56;4951365;29;19930;-90
2023/04/02 13:27:49;;;;;;;;;;;;;;;11.37;nan;100412.91;4939494;29;19965;-92
2023/04/02 13:30:33;;;;;;;;;;;;;;;11.07;nan;100409.97;4940945;29;19921;-90
2023/04/02 13:33:17;;;;;;;;;;;;;;;11.68;nan;100391.97;4941313;29;19937;-91
2023/04/02 13:36:01;;;;;;;;;;;;;;;11.67;nan;100400.03;4941076;29;19984;-90
2023/04/02 13:38:45;;;;;;;;;;;;;;;11.73;nan;100403.81;4939985;29;20396;-90
2023/04/02 13:41:30;;;;;;;;;;;;;;;12.07;nan;100410.63;4940903;29;19982;-87
2023/04/02 13:44:19;;;;;;;;;;;;;;;11.76;nan;100419.25;4939017;29;19965;-89
2023/04/02 13:47:03;;;;;;;;;;;;;;;12.17;nan;100413.91;4948351;29;19925;-91
2023/04/02 13:49:47;;;;;;;;;;;;;;;12.54;nan;100408.94;4941717;29;20014;-87
2023/04/02 13:52:31;;;;;;;;;;;;;;;12.46;nan;100411.63;4940106;29;19979;-90
2023/04/02 13:55:16;;;;;;;;;;;;;;;12.50;nan;100405.84;4956064;29;19937;-87
2023/04/02 13:58:01;;;;;;;;;;;;;;;12.12;nan;100411.75;4941508;29;20081;-89
2023/04/02 14:00:46;;;;;;;;;;;;;;;11.73;nan;100407.25;4941535;29;19993;-90
2023/04/02 14:03:30;;;;;;;;;;;;;;;11.83;nan;100409.69;4953204;29;19921;-89
2023/04/02 14:06:30;;;;;;;;;;;;;;;11.89;nan;100409.03;4941718;29;20280;-88
2023/04/02 14:09:14;;;;;;;;;;;;;;;11.78;nan;100406.75;4941751;29;19925;-87
2023/04/02 14:12:03;;;;;;;;;;;;;;;12.10;nan;100402.41;4943285;29;19925;-91
2023/04/02 14:14:56;;;;;;;;;;;;;;;12.49;nan;100392.84;4943075;29;19921;-89
2023/04/02 14:17:49;;;;;;;;;;;;;;;12.45;nan;100391.56;4941583;29;19953;-91
2023/04/02 14:20:46;;;;;;;;;;;;;;;12.50;nan;100392.69;4939403;29;19982;-88
2023/04/02 14:23:40;;;;;;;;;;;;;;;12.18;nan;100396.28;4941458;29;20427;-88
2023/04/02 14:26:38;;;;;;;;;;;;;;;12.09;nan;100398.94;4941493;29;19929;-91
2023/04/02 14:29:30;;;;;;;;;;;;;;;12.19;nan;100403.22;4940599;29;19973;-91
2023/04/02 14:32:27;;;;;;;;;;;;;;;12.00;nan;100399.97;4941190;29;19921;-90
2023/04/02 14:35:33;;;;;;;;;;;;;;;12.06;nan;100399.31;4943481;29;19981;-90
2023/04/02 14:38:30;;;;;;;;;;;;;;;12.12;nan;100403.88;4943400;29;20005;-91
2023/04/02 14:41:20;;;;;;;;;;;;;;;12.00;nan;100402.59;4943663;29;19925;-90
2023/04/02 14:44:06;;;;;;;;;;;;;;;11.79;nan;100414.50;4942805;29;19942;-91
2023/04/02 14:46:55;;;;;;;;;;;;;;;11.62;nan;100410.25;4956557;29;19926;-90
2023/04/02 14:49:41;;;;;;;;;;;;;;;11.32;nan;100399.44;4942632;29;20421;-88
2023/04/02 14:52:28;;;;;;;;;;;;;;;11.88;nan;100390.78;4943670;29;19934;-91
2023/04/02 14:55:26;;;;;;;;;;;;;;;12.03;nan;100394.38;4943671;29;20367;-89
2023/04/02 14:58:16;;;;;;;;;;;;;;;12.32;nan;100394.75;4943892;29;19966;-88
2023/04/02 15:01:05;;;;;;;;;;;;;;;12.23;nan;100388.72;4944881;29;19928;-89
2023/04/02 15:04:13;;;;;;;;;;;;;;;12.01;nan;100396.38;4937544;29;19945;-86
2023/04/02 15:07:04;;;;;;;;;;;;;;;12.00;nan;100399.97;4934648;29;19929;-89
2023/04/02 15:09:52;;;;;;;;;;;;;;;12.02;nan;100392.75;4953086;29;20268;-91
2023/04/02 15:12:37;;;;;;;;;;;;;;;11.77;nan;100400.66;4952849;29;20001;-90
2023/04/02 15:18:32;;;;;;;;;;;;;;;11.96;nan;100401.25;4953747;29;20404;-91
2023/04/02 15:21:49;;;;;;;;;;;;;;;12.33;nan;100393.75;4953489;29;20002;-91